Time;durP1;ratioP1;P1;durP2;ratioP2;P2;SDS_P1;SDS_P2;PMS_P1;PMS_P2;Temp;Humidity;BMP_temperature;BMP_pressure;BME280_temperature;BME280_humidity;BME280_pressure;Samples;Min_cycle;Max_cycle;Signal;HPM_P1;HPM_P2
2022/06/14 00:00:56;;;;;;;5.90;1.60;;;16.30;58.30;;;;;;5096628;28;20945;-70
2022/06/14 00:03:25;;;;;;;5.27;1.50;;;16.20;58.20;;;;;;5096838;28;20467;-71
2022/06/14 00:05:52;;;;;;;2.97;1.77;;;16.20;58.50;;;;;;5096448;28;20801;-71
2022/06/14 00:08:22;;;;;;;5.53;1.70;;;16.20;58.70;;;;;;5096642;28;20451;-71
2022/06/14 00:10:50;;;;;;;6.70;2.10;;;16.20;58.80;;;;;;5096541;28;20470;-70
2022/06/14 00:13:17;;;;;;;2.67;1.27;;;16.10;58.90;;;;;;5096360;28;20475;-70
2022/06/14 00:15:45;;;;;;;3.40;1.80;;;16.10;59.00;;;;;;5096440;28;20925;-70
2022/06/14 00:18:12;;;;;;;1.87;1.77;;;16.10;59.20;;;;;;5096297;28;21031;-70
2022/06/14 00:20:39;;;;;;;3.67;2.17;;;16.00;59.40;;;;;;5096582;28;20443;-70
2022/06/14 00:23:06;;;;;;;2.33;1.80;;;16.00;59.60;;;;;;5096209;28;20992;-70
2022/06/14 00:25:37;;;;;;;3.33;2.30;;;15.90;59.50;;;;;;5096458;28;20454;-70
2022/06/14 00:28:05;;;;;;;3.10;1.87;;;15.90;59.50;;;;;;5096636;28;20438;-70
2022/06/14 00:30:32;;;;;;;5.53;2.17;;;15.80;59.90;;;;;;5096515;28;20500;-70
2022/06/14 00:32:59;;;;;;;5.47;1.90;;;15.80;60.30;;;;;;5096434;28;20462;-70
2022/06/14 00:35:26;;;;;;;3.43;1.83;;;15.70;60.40;;;;;;5096012;28;20463;-70
2022/06/14 00:37:53;;;;;;;6.73;2.20;;;15.60;60.50;;;;;;5096527;28;20439;-70
2022/06/14 00:40:23;;;;;;;2.17;1.57;;;15.60;61.00;;;;;;5096432;28;20445;-70
2022/06/14 00:42:52;;;;;;;3.10;1.20;;;15.50;61.20;;;;;;5096422;28;20491;-70
2022/06/14 00:45:55;;;;;;;3.97;1.60;;;15.50;61.50;;;;;;5097307;28;20467;-70
2022/06/14 00:48:25;;;;;;;3.23;1.73;;;15.40;61.80;;;;;;5096771;28;20446;-70
2022/06/14 00:51:00;;;;;;;6.23;2.00;;;15.40;62.20;;;;;;5097142;28;20439;-70
2022/06/14 00:53:31;;;;;;;2.57;2.00;;;15.30;62.60;;;;;;5096932;28;20514;-70
2022/06/14 00:56:01;;;;;;;5.07;2.40;;;15.30;63.10;;;;;;5095867;28;20428;-70
2022/06/14 00:58:36;;;;;;;3.50;2.00;;;15.30;62.90;;;;;;5096685;28;20442;-70
2022/06/14 01:01:06;;;;;;;2.57;1.80;;;15.30;63.40;;;;;;5096764;28;20434;-70
2022/06/14 01:03:39;;;;;;;1.60;1.50;;;15.30;63.50;;;;;;5095776;28;20459;-70
2022/06/14 01:06:10;;;;;;;3.63;1.63;;;15.30;63.20;;;;;;5095850;28;20477;-70
2022/06/14 01:08:41;;;;;;;2.27;1.60;;;15.20;63.30;;;;;;5095779;28;20427;-70
2022/06/14 01:11:11;;;;;;;3.20;1.73;;;15.10;63.60;;;;;;5095338;28;20917;-70
2022/06/14 01:13:39;;;;;;;2.57;1.53;;;15.00;63.70;;;;;;5095313;28;20444;-70
2022/06/14 01:16:07;;;;;;;3.70;1.90;;;15.00;64.30;;;;;;5095561;28;20457;-70
2022/06/14 01:18:34;;;;;;;5.53;2.20;;;15.00;64.20;;;;;;5095550;28;20513;-70
2022/06/14 01:21:01;;;;;;;4.40;1.80;;;15.00;64.30;;;;;;5095318;28;20444;-71
2022/06/14 01:23:30;;;;;;;2.37;1.60;;;15.00;64.20;;;;;;5094957;28;20484;-70
2022/06/14 01:26:08;;;;;;;3.30;1.43;;;15.00;64.20;;;;;;5095252;28;20795;-70
2022/06/14 01:28:36;;;;;;;3.77;1.90;;;15.00;64.20;;;;;;5095307;28;20431;-70
2022/06/14 01:31:05;;;;;;;6.90;2.10;;;15.10;64.30;;;;;;5095038;28;20466;-70
2022/06/14 01:33:36;;;;;;;2.20;1.70;;;15.00;64.50;;;;;;5095071;28;20497;-70
2022/06/14 01:36:09;;;;;;;2.60;2.07;;;15.00;64.70;;;;;;5095131;28;20519;-70
2022/06/14 01:38:37;;;;;;;5.23;1.80;;;15.00;64.70;;;;;;5094876;28;20432;-70
2022/06/14 01:41:10;;;;;;;3.07;1.63;;;15.00;65.20;;;;;;5095037;28;20444;-70
2022/06/14 01:44:00;;;;;;;4.87;2.07;;;14.90;65.20;;;;;;5095004;28;20476;-70
2022/06/14 01:46:29;;;;;;;6.67;2.40;;;14.80;65.50;;;;;;5094957;28;20441;-70
2022/06/14 01:51:54;;;;;;;4.70;1.47;;;14.70;65.70;;;;;;5094505;28;20800;-70
2022/06/14 01:54:28;;;;;;;4.10;1.90;;;14.60;66.10;;;;;;5094639;28;20426;-70
2022/06/14 01:57:04;;;;;;;3.77;2.20;;;14.60;66.60;;;;;;5094865;28;20432;-70
2022/06/14 01:59:41;;;;;;;3.00;1.60;;;14.50;66.80;;;;;;5094528;28;20932;-70
2022/06/14 02:02:13;;;;;;;2.30;1.77;;;14.50;66.80;;;;;;5094683;28;20455;-70
2022/06/14 02:04:45;;;;;;;4.10;2.10;;;14.50;66.90;;;;;;5094669;28;20471;-70
2022/06/14 02:07:21;;;;;;;2.50;1.40;;;14.50;67.00;;;;;;5094522;28;20420;-70
2022/06/14 02:09:58;;;;;;;4.47;2.03;;;14.50;66.80;;;;;;5095282;28;20435;-70
2022/06/14 02:12:34;;;;;;;2.10;1.53;;;14.50;67.00;;;;;;5094747;28;20459;-70
2022/06/14 02:15:08;;;;;;;5.90;2.50;;;14.50;67.30;;;;;;5095916;28;20420;-70
2022/06/14 02:17:40;;;;;;;6.17;1.93;;;14.50;67.50;;;;;;5096083;28;20436;-70
2022/06/14 02:20:13;;;;;;;3.67;1.40;;;14.50;67.60;;;;;;5097229;28;20436;-70
2022/06/14 02:22:43;;;;;;;4.63;2.07;;;14.50;67.40;;;;;;5093965;28;20976;-71
2022/06/14 02:25:15;;;;;;;3.50;1.87;;;14.40;68.30;;;;;;5094407;28;20443;-70
2022/06/14 02:27:47;;;;;;;2.80;1.63;;;14.40;68.00;;;;;;5094336;28;20481;-70
2022/06/14 02:30:19;;;;;;;3.70;1.83;;;14.40;67.90;;;;;;5093946;28;20428;-70
2022/06/14 02:32:51;;;;;;;1.70;1.60;;;14.30;68.30;;;;;;5093748;28;20836;-70
2022/06/14 02:35:22;;;;;;;5.53;1.90;;;14.20;68.40;;;;;;5093878;28;20448;-70
2022/06/14 02:37:56;;;;;;;3.17;1.97;;;14.20;69.00;;;;;;5093943;28;20432;-70
2022/06/14 02:40:28;;;;;;;3.63;1.80;;;14.10;69.70;;;;;;5094030;28;20434;-70
2022/06/14 02:43:01;;;;;;;5.07;2.00;;;14.10;69.00;;;;;;5093876;28;20452;-70
2022/06/14 02:45:32;;;;;;;1.93;1.67;;;14.10;69.00;;;;;;5094078;28;20434;-70
2022/06/14 02:48:05;;;;;;;4.27;2.03;;;14.10;69.00;;;;;;5093980;28;20436;-70
2022/06/14 02:50:37;;;;;;;5.73;1.60;;;14.10;68.90;;;;;;5093963;28;20424;-70
2022/06/14 02:53:10;;;;;;;3.10;2.60;;;14.10;69.00;;;;;;5093858;28;20468;-70
2022/06/14 02:55:43;;;;;;;3.70;2.00;;;14.10;69.00;;;;;;5093853;28;20844;-70
2022/06/14 02:58:17;;;;;;;3.17;1.80;;;14.00;69.00;;;;;;5093897;28;20448;-70
2022/06/14 03:00:51;;;;;;;4.77;2.57;;;14.10;69.10;;;;;;5093370;28;20430;-70
2022/06/14 03:03:22;;;;;;;4.63;2.13;;;14.10;68.90;;;;;;5093789;28;20487;-70
2022/06/14 03:05:52;;;;;;;4.03;2.60;;;14.10;68.90;;;;;;5093704;28;20462;-70
2022/06/14 03:08:24;;;;;;;4.20;2.30;;;14.00;69.00;;;;;;5094003;28;20530;-70
2022/06/14 03:11:02;;;;;;;2.53;2.33;;;14.10;69.10;;;;;;5093677;28;20416;-70
2022/06/14 03:13:34;;;;;;;2.17;1.80;;;14.10;69.10;;;;;;5093838;28;20756;-70
2022/06/14 03:16:13;;;;;;;4.17;1.97;;;14.10;69.20;;;;;;5093409;28;20901;-70
2022/06/14 03:18:49;;;;;;;5.03;1.87;;;14.10;69.20;;;;;;5095129;28;20428;-70
2022/06/14 03:21:21;;;;;;;2.50;2.03;;;14.00;69.20;;;;;;5097943;28;20499;-70
2022/06/14 03:23:54;;;;;;;3.03;2.00;;;13.90;69.70;;;;;;5097863;28;20490;-70
2022/06/14 03:26:31;;;;;;;3.80;2.40;;;13.90;69.90;;;;;;5097783;28;20424;-70
2022/06/14 03:29:05;;;;;;;6.30;2.67;;;13.80;69.80;;;;;;5097336;28;20423;-70
2022/06/14 03:31:36;;;;;;;5.43;2.43;;;13.80;70.10;;;;;;5097454;28;20478;-70
2022/06/14 03:34:08;;;;;;;7.63;2.60;;;13.70;70.10;;;;;;5097401;28;20459;-70
2022/06/14 03:36:36;;;;;;;5.83;2.50;;;13.70;70.30;;;;;;5097520;28;20432;-70
2022/06/14 03:39:08;;;;;;;4.60;2.20;;;13.70;70.40;;;;;;5097493;28;20822;-70
2022/06/14 03:41:40;;;;;;;6.13;2.50;;;13.70;70.60;;;;;;5097391;28;20491;-70
2022/06/14 03:44:07;;;;;;;5.03;2.00;;;13.60;70.70;;;;;;5097366;28;20468;-70
2022/06/14 03:46:37;;;;;;;2.90;1.80;;;13.70;70.90;;;;;;5097917;28;20450;-71
2022/06/14 03:49:08;;;;;;;3.57;2.53;;;13.60;70.80;;;;;;5097376;28;20467;-71
2022/06/14 03:51:55;;;;;;;3.53;2.10;;;13.60;71.00;;;;;;5097250;28;20550;-71
2022/06/14 03:54:38;;;;;;;3.23;1.93;;;13.60;71.60;;;;;;5097276;28;20446;-71
2022/06/14 03:57:16;;;;;;;4.30;2.10;;;13.60;71.90;;;;;;5097231;28;20424;-71
2022/06/14 04:00:01;;;;;;;4.00;2.03;;;13.60;72.00;;;;;;5097188;28;20428;-71
2022/06/14 04:02:56;;;;;;;3.33;2.20;;;13.60;72.30;;;;;;5097150;28;20469;-71
2022/06/14 04:05:52;;;;;;;5.90;2.43;;;13.50;72.20;;;;;;5097222;28;20486;-71
2022/06/14 04:08:35;;;;;;;2.73;2.10;;;13.40;72.60;;;;;;5080269;28;20464;-71
2022/06/14 04:11:15;;;;;;;3.30;2.27;;;13.40;73.10;;;;;;5097605;28;20424;-71
2022/06/14 04:13:48;;;;;;;2.60;1.87;;;13.40;73.50;;;;;;5097931;28;20423;-71
2022/06/14 04:16:21;;;;;;;6.10;2.90;;;13.40;73.90;;;;;;5097609;28;20936;-71
2022/06/14 04:18:57;;;;;;;3.53;2.40;;;13.40;74.20;;;;;;5097983;28;20428;-71
2022/06/14 04:21:34;;;;;;;3.37;2.00;;;13.30;74.80;;;;;;5098089;28;20491;-71
2022/06/14 04:24:17;;;;;;;5.30;2.40;;;13.30;75.50;;;;;;5097062;28;20463;-71
2022/06/14 04:26:49;;;;;;;3.93;2.37;;;13.30;75.70;;;;;;5097108;28;20428;-71
2022/06/14 04:29:22;;;;;;;3.67;2.70;;;13.30;76.10;;;;;;5096466;28;20428;-71
2022/06/14 04:31:57;;;;;;;4.13;2.87;;;13.40;76.50;;;;;;5096401;28;20467;-71
2022/06/14 04:34:29;;;;;;;7.10;2.70;;;13.40;76.70;;;;;;5096308;28;20447;-71
2022/06/14 04:37:06;;;;;;;5.17;2.50;;;13.40;76.90;;;;;;5096495;28;20439;-71
2022/06/14 04:39:37;;;;;;;3.33;2.70;;;13.40;77.10;;;;;;5096232;28;20427;-70
2022/06/14 04:42:09;;;;;;;7.23;3.30;;;13.50;77.60;;;;;;5096318;28;20468;-70
2022/06/14 04:44:42;;;;;;;5.77;3.33;;;13.50;78.70;;;;;;5096503;28;20467;-70
2022/06/14 04:47:15;;;;;;;4.40;3.90;;;13.60;79.20;;;;;;5096828;28;20436;-70
2022/06/14 04:49:48;;;;;;;5.57;2.63;;;13.60;79.40;;;;;;5098205;28;20428;-71
2022/06/14 04:52:20;;;;;;;7.37;3.37;;;13.60;80.40;;;;;;5098061;28;20517;-71
2022/06/14 04:54:51;;;;;;;4.70;3.37;;;13.70;80.40;;;;;;5100250;28;20435;-71
2022/06/14 04:57:24;;;;;;;4.00;3.33;;;13.70;80.70;;;;;;5098311;28;20430;-71
2022/06/14 04:59:54;;;;;;;6.80;4.47;;;13.80;81.10;;;;;;5095820;28;20904;-71
2022/06/14 05:02:25;;;;;;;6.10;3.60;;;13.80;81.30;;;;;;5095614;28;20833;-70
2022/06/14 05:04:56;;;;;;;6.13;4.10;;;13.90;81.70;;;;;;5095760;28;20468;-70
2022/06/14 05:07:28;;;;;;;8.50;4.33;;;13.90;81.90;;;;;;5095924;28;20559;-70
2022/06/14 05:10:01;;;;;;;10.00;4.53;;;13.90;82.60;;;;;;5095744;28;20428;-70
2022/06/14 05:12:31;;;;;;;10.97;4.67;;;13.90;83.10;;;;;;5095625;28;20558;-70
2022/06/14 05:15:06;;;;;;;7.47;4.63;;;13.90;83.70;;;;;;5095731;28;20443;-70
2022/06/14 05:17:39;;;;;;;6.77;4.77;;;14.00;84.20;;;;;;5095682;28;20424;-70
2022/06/14 05:20:11;;;;;;;7.00;4.83;;;14.00;84.50;;;;;;5095316;28;20435;-70
2022/06/14 05:22:42;;;;;;;5.60;4.70;;;14.10;84.80;;;;;;5095359;28;20459;-70
2022/06/14 05:25:10;;;;;;;12.17;5.23;;;14.10;85.60;;;;;;5095357;28;20495;-70
2022/06/14 05:27:48;;;;;;;7.73;4.70;;;14.20;85.70;;;;;;5095045;28;20447;-71
2022/06/14 05:30:37;;;;;;;10.77;5.50;;;14.20;85.40;;;;;;5095384;28;20428;-71
2022/06/14 05:33:25;;;;;;;12.23;4.40;;;14.30;85.70;;;;;;5095119;28;20868;-71
2022/06/14 05:35:57;;;;;;;8.80;5.00;;;14.40;86.10;;;;;;5094888;28;20807;-71
2022/06/14 05:38:35;;;;;;;8.00;5.53;;;14.40;86.10;;;;;;5095160;28;20416;-72
2022/06/14 05:41:06;;;;;;;9.67;5.50;;;14.50;86.40;;;;;;5094524;28;20523;-71
2022/06/14 05:43:39;;;;;;;14.23;5.60;;;14.60;87.60;;;;;;5095170;28;20434;-71
2022/06/14 05:46:10;;;;;;;7.30;5.90;;;14.70;87.00;;;;;;5095313;28;20424;-70
2022/06/14 05:48:44;;;;;;;10.53;6.17;;;14.70;86.60;;;;;;5094832;28;20910;-70
2022/06/14 05:51:14;;;;;;;9.83;6.10;;;14.80;86.20;;;;;;5095022;28;20768;-70
2022/06/14 05:53:47;;;;;;;13.67;5.73;;;14.90;86.30;;;;;;5095425;28;20435;-69
2022/06/14 05:56:21;;;;;;;12.33;6.97;;;15.00;85.90;;;;;;5095226;28;20436;-69
2022/06/14 05:58:54;;;;;;;9.60;6.30;;;15.10;85.90;;;;;;5095054;28;20432;-69
2022/06/14 06:01:29;;;;;;;8.03;5.87;;;15.10;86.00;;;;;;5095117;28;20868;-69
2022/06/14 06:04:06;;;;;;;8.13;5.97;;;15.20;86.70;;;;;;5094301;28;20962;-70
2022/06/14 06:06:38;;;;;;;12.10;5.80;;;15.40;86.90;;;;;;5094931;28;20451;-70
2022/06/14 06:09:09;;;;;;;8.27;5.60;;;15.50;86.40;;;;;;5094639;28;20424;-70
2022/06/14 06:11:43;;;;;;;11.53;6.63;;;15.70;86.10;;;;;;5094462;28;20466;-69
2022/06/14 06:14:14;;;;;;;13.10;6.33;;;15.80;85.20;;;;;;5094573;28;20438;-70
2022/06/14 06:16:46;;;;;;;8.60;5.23;;;15.90;84.20;;;;;;5094510;28;20432;-69
2022/06/14 06:19:17;;;;;;;10.90;6.30;;;16.00;83.90;;;;;;5094355;28;20485;-69
2022/06/14 06:21:52;;;;;;;7.97;6.10;;;16.10;83.30;;;;;;5094254;28;20474;-69
2022/06/14 06:24:24;;;;;;;10.03;5.83;;;16.30;82.90;;;;;;5094270;28;20495;-69
2022/06/14 06:26:56;;;;;;;7.57;5.63;;;16.40;83.80;;;;;;5094354;28;20427;-69
2022/06/14 06:29:28;;;;;;;14.37;6.37;;;16.60;82.40;;;;;;5094661;28;20420;-69
2022/06/14 06:31:56;;;;;;;12.20;5.83;;;16.70;82.00;;;;;;5094180;28;20463;-69
2022/06/14 06:34:23;;;;;;;9.40;6.20;;;16.80;81.30;;;;;;5093902;28;20463;-69
2022/06/14 06:37:06;;;;;;;9.53;5.67;;;16.90;80.80;;;;;;5094148;28;20450;-69
2022/06/14 06:39:41;;;;;;;10.83;4.90;;;17.00;79.70;;;;;;5094152;28;20440;-70
2022/06/14 06:42:13;;;;;;;6.53;4.90;;;17.20;79.50;;;;;;5094025;28;20475;-70
2022/06/14 06:44:51;;;;;;;10.23;6.40;;;17.30;78.90;;;;;;5094124;28;20464;-70
2022/06/14 06:47:23;;;;;;;12.10;6.10;;;17.50;79.50;;;;;;5094085;28;20438;-69
2022/06/14 06:50:15;;;;;;;10.73;4.30;;;17.70;79.10;;;;;;5094053;28;20428;-69
2022/06/14 06:52:50;;;;;;;7.20;4.80;;;17.90;77.90;;;;;;5093255;28;20472;-70
2022/06/14 06:55:34;;;;;;;7.50;3.57;;;18.10;76.50;;;;;;5094116;28;20430;-70
2022/06/14 06:58:05;;;;;;;7.80;4.63;;;18.40;75.40;;;;;;5093968;28;20423;-69
2022/06/14 07:00:34;;;;;;;8.33;5.13;;;18.60;74.20;;;;;;5093561;28;20440;-70
2022/06/14 07:03:09;;;;;;;7.47;3.93;;;18.70;72.60;;;;;;5093745;28;20467;-70
2022/06/14 07:05:36;;;;;;;10.37;3.70;;;18.90;71.80;;;;;;5093433;28;20967;-70
2022/06/14 07:08:08;;;;;;;8.07;3.87;;;19.10;71.50;;;;;;5093826;28;20453;-69
2022/06/14 07:10:40;;;;;;;8.90;4.27;;;19.30;70.40;;;;;;5093782;28;20515;-69
2022/06/14 07:13:17;;;;;;;8.37;3.10;;;19.60;69.50;;;;;;5093837;28;20467;-70
2022/06/14 07:15:50;;;;;;;6.77;3.50;;;19.80;67.30;;;;;;5094352;28;20804;-69
2022/06/14 07:18:24;;;;;;;10.30;3.07;;;20.00;66.70;;;;;;5093770;28;20436;-70
2022/06/14 07:20:56;;;;;;;5.80;3.07;;;20.30;65.80;;;;;;5093887;28;20497;-70
2022/06/14 07:23:31;;;;;;;8.53;3.07;;;20.50;64.50;;;;;;5093461;28;20424;-70
2022/06/14 07:26:05;;;;;;;5.40;2.30;;;20.80;63.50;;;;;;5094176;28;20998;-70
2022/06/14 07:28:38;;;;;;;6.20;3.23;;;21.00;61.60;;;;;;5096111;28;20441;-70
2022/06/14 07:31:08;;;;;;;6.37;2.07;;;21.30;60.40;;;;;;5095737;28;20424;-70
2022/06/14 07:33:37;;;;;;;6.00;2.30;;;21.50;59.30;;;;;;5093540;28;20497;-69
2022/06/14 07:36:12;;;;;;;5.13;1.83;;;21.70;58.30;;;;;;5093547;28;20481;-69
2022/06/14 07:38:48;;;;;;;6.93;2.23;;;21.90;57.50;;;;;;5093597;28;20439;-70
2022/06/14 07:41:21;;;;;;;8.47;2.63;;;22.20;56.50;;;;;;5093463;28;20435;-70
2022/06/14 07:43:56;;;;;;;8.00;2.87;;;22.40;55.20;;;;;;5093565;28;20451;-70
2022/06/14 07:46:31;;;;;;;6.90;2.70;;;22.50;55.10;;;;;;5093365;28;20499;-70
2022/06/14 07:49:04;;;;;;;7.53;3.40;;;22.60;55.30;;;;;;5093524;28;20904;-72
2022/06/14 07:51:37;;;;;;;5.30;2.60;;;22.80;55.10;;;;;;5093297;28;20463;-72
2022/06/14 07:54:11;;;;;;;8.73;2.70;;;22.90;52.80;;;;;;5093295;28;20438;-72
2022/06/14 07:56:45;;;;;;;4.70;1.97;;;22.90;52.20;;;;;;5093202;28;20428;-72
2022/06/14 07:59:16;;;;;;;5.23;3.10;;;23.10;52.40;;;;;;5095428;28;20513;-72
2022/06/14 08:01:50;;;;;;;6.77;3.10;;;23.30;52.50;;;;;;5092934;28;20839;-72
2022/06/14 08:04:23;;;;;;;4.27;2.60;;;23.60;52.70;;;;;;5093847;28;20431;-72
2022/06/14 08:06:55;;;;;;;5.60;2.33;;;23.80;51.30;;;;;;5097078;28;20447;-72
2022/06/14 08:09:28;;;;;;;7.20;2.67;;;24.10;50.50;;;;;;5096942;28;20428;-72
2022/06/14 08:11:57;;;;;;;5.20;2.57;;;24.30;48.20;;;;;;5096896;28;20471;-72
2022/06/14 08:14:32;;;;;;;8.73;2.20;;;24.50;46.50;;;;;;5096862;28;20447;-72
2022/06/14 08:17:00;;;;;;;2.87;1.07;;;24.60;46.20;;;;;;5096906;28;20427;-70
2022/06/14 08:19:32;;;;;;;3.30;2.73;;;24.90;46.10;;;;;;5096826;28;20447;-70
2022/06/14 08:22:04;;;;;;;3.23;1.77;;;25.20;45.60;;;;;;5097155;28;20467;-69
2022/06/14 08:24:38;;;;;;;7.23;2.90;;;25.40;44.00;;;;;;5096772;28;20428;-69
2022/06/14 08:27:09;;;;;;;6.27;2.80;;;25.50;44.30;;;;;;5097437;28;20778;-68
2022/06/14 08:29:41;;;;;;;9.03;3.30;;;25.60;45.20;;;;;;5096619;28;20442;-69
2022/06/14 08:32:13;;;;;;;7.57;2.60;;;25.50;45.70;;;;;;5096655;28;20464;-69
2022/06/14 08:34:45;;;;;;;8.50;2.90;;;25.40;44.80;;;;;;5096457;28;20456;-69
2022/06/14 08:37:19;;;;;;;4.40;1.90;;;25.10;44.60;;;;;;5096813;28;20455;-69
2022/06/14 08:39:51;;;;;;;7.67;3.27;;;25.00;45.30;;;;;;5096449;28;20432;-69
2022/06/14 08:42:26;;;;;;;8.77;2.90;;;24.90;45.30;;;;;;5096352;28;20472;-69
2022/06/14 08:44:59;;;;;;;5.37;2.43;;;24.90;45.00;;;;;;5096229;28;20516;-70
2022/06/14 08:47:43;;;;;;;6.90;2.80;;;24.90;45.40;;;;;;5096293;28;20431;-69
2022/06/14 08:50:23;;;;;;;6.17;2.47;;;25.10;45.10;;;;;;5096248;28;20438;-69
2022/06/14 08:53:09;;;;;;;5.53;2.47;;;25.40;44.20;;;;;;5096133;28;20499;-69
2022/06/14 08:55:59;;;;;;;9.33;2.57;;;25.70;43.50;;;;;;5096147;28;20431;-69
2022/06/14 08:58:49;;;;;;;3.40;2.17;;;26.00;43.50;;;;;;5096050;28;20440;-69
2022/06/14 09:01:26;;;;;;;3.23;2.40;;;26.00;42.00;;;;;;5095891;28;20816;-69
2022/06/14 09:04:24;;;;;;;4.40;1.80;;;25.90;41.60;;;;;;5095913;28;20780;-69
2022/06/14 09:07:18;;;;;;;7.67;2.23;;;25.70;42.10;;;;;;5095758;28;20463;-70
2022/06/14 09:10:14;;;;;;;6.20;2.70;;;25.70;42.70;;;;;;5095951;28;20443;-70
2022/06/14 09:13:21;;;;;;;3.57;2.00;;;25.80;43.40;;;;;;5095721;28;20472;-70
2022/06/14 09:16:20;;;;;;;4.50;2.77;;;26.00;43.30;;;;;;5050636;28;20450;-70
2022/06/14 09:19:00;;;;;;;5.80;2.03;;;26.20;40.80;;;;;;5081971;28;20459;-69
2022/06/14 09:21:34;;;;;;;6.20;2.70;;;26.30;41.80;;;;;;5095554;28;20491;-70
2022/06/14 09:24:14;;;;;;;7.43;2.40;;;26.50;41.90;;;;;;5095194;28;20905;-70
2022/06/14 09:27:05;;;;;;;6.30;2.10;;;26.60;41.20;;;;;;5095425;28;20467;-70
2022/06/14 09:30:07;;;;;;;5.67;1.87;;;26.90;41.60;;;;;;5095584;28;20440;-71
2022/06/14 09:33:14;;;;;;;3.50;1.90;;;27.30;42.10;;;;;;5095265;28;20461;-72
2022/06/14 09:35:59;;;;;;;6.50;2.17;;;27.70;39.50;;;;;;5094816;28;20538;-70
2022/06/14 09:39:03;;;;;;;4.90;1.93;;;28.00;38.80;;;;;;5094933;28;20956;-71
2022/06/14 09:41:56;;;;;;;5.93;2.50;;;28.10;38.40;;;;;;5095174;28;20481;-71
2022/06/14 09:45:13;;;;;;;5.30;2.47;;;28.30;38.00;;;;;;5095225;28;20428;-72
2022/06/14 09:48:04;;;;;;;5.13;2.17;;;28.50;36.80;;;;;;5012930;28;20510;-72
2022/06/14 09:50:51;;;;;;;4.13;2.00;;;28.80;36.10;;;;;;5013138;28;20463;-72
2022/06/14 09:53:50;;;;;;;8.20;2.43;;;29.00;33.60;;;;;;5074663;28;20462;-71
2022/06/14 09:56:33;;;;;;;6.20;2.13;;;29.20;34.60;;;;;;5095400;28;20428;-71
2022/06/14 09:59:35;;;;;;;4.07;2.10;;;29.30;33.50;;;;;;5095328;28;20504;-72
2022/06/14 10:02:12;;;;;;;2.80;1.73;;;29.60;34.40;;;;;;5097267;28;20474;-71
2022/06/14 10:04:55;;;;;;;4.03;2.03;;;29.80;32.40;;;;;;5100170;28;20904;-71
2022/06/14 10:07:51;;;;;;;4.67;2.50;;;30.10;33.00;;;;;;5097702;28;20423;-72
2022/06/14 10:10:39;;;;;;;3.83;2.00;;;30.50;33.20;;;;;;5094516;28;20440;-72
2022/06/14 10:13:36;;;;;;;5.80;2.87;;;31.10;32.10;;;;;;5081028;28;20565;-72
2022/06/14 10:16:15;;;;;;;5.50;2.60;;;31.50;30.00;;;;;;5094611;28;20443;-73
2022/06/14 10:19:08;;;;;;;3.27;2.10;;;31.70;29.00;;;;;;5094502;28;20422;-73
2022/06/14 10:21:39;;;;;;;2.67;2.13;;;32.00;29.30;;;;;;5094345;28;20470;-72
2022/06/14 10:24:19;;;;;;;8.03;2.60;;;32.40;30.00;;;;;;5094140;28;20420;-72
2022/06/14 10:29:51;;;;;;;4.97;2.67;;;33.40;29.70;;;;;;5094562;28;20403;-73
2022/06/14 10:33:03;;;;;;;6.90;3.30;;;33.90;28.00;;;;;;5094257;28;20467;-72
2022/06/14 10:35:38;;;;;;;5.10;2.53;;;34.20;26.70;;;;;;5059928;28;20465;-72
2022/06/14 10:38:29;;;;;;;4.97;2.70;;;34.50;26.10;;;;;;5094165;28;20433;-73
2022/06/14 10:41:00;;;;;;;4.90;2.77;;;34.80;26.50;;;;;;5094100;28;20447;-72
2022/06/14 10:43:38;;;;;;;4.43;3.07;;;35.10;25.80;;;;;;5094096;28;20439;-72
2022/06/14 10:46:10;;;;;;;5.67;2.87;;;35.40;25.40;;;;;;5093988;28;20463;-72
2022/06/14 10:49:00;;;;;;;4.70;2.53;;;35.70;25.20;;;;;;5094012;28;20427;-72
2022/06/14 10:51:54;;;;;;;7.30;4.10;;;36.00;24.80;;;;;;5093990;28;20467;-71
2022/06/14 10:54:28;;;;;;;4.13;2.83;;;36.30;24.20;;;;;;5056839;28;20439;-72
2022/06/14 10:57:11;;;;;;;6.30;2.40;;;36.50;23.80;;;;;;5093867;28;20428;-72
2022/06/14 10:59:54;;;;;;;4.77;2.40;;;37.00;24.10;;;;;;5093663;28;20644;-69
2022/06/14 11:02:37;;;;;;;5.80;2.23;;;37.50;23.30;;;;;;5093636;28;20732;-69
2022/06/14 11:05:13;;;;;;;5.20;2.25;;;38.10;22.60;;;;;;5093811;28;20559;-69
2022/06/14 11:07:58;;;;;;;11.15;4.05;;;38.60;21.10;;;;;;5094185;28;20192;-69
2022/06/14 11:10:51;;;;;;;4.35;2.42;;;38.90;20.70;;;;;;5093628;28;20195;-69
2022/06/14 11:13:26;;;;;;;3.88;2.80;;;39.20;21.50;;;;;;5090677;28;20221;-69
2022/06/14 11:16:01;;;;;;;5.80;2.50;;;39.60;21.40;;;;;;5093875;28;20180;-70
2022/06/14 11:18:59;;;;;;;5.70;3.17;;;40.00;21.00;;;;;;5093554;28;20184;-70
2022/06/14 11:21:43;;;;;;;4.07;2.33;;;40.40;20.70;;;;;;5093658;28;20216;-70
2022/06/14 11:24:17;;;;;;;3.15;2.03;;;40.80;20.30;;;;;;5095606;28;20186;-69
2022/06/14 11:26:55;;;;;;;5.95;2.33;;;41.20;19.80;;;;;;5093568;28;20205;-69
2022/06/14 11:29:30;;;;;;;3.47;2.40;;;41.60;19.60;;;;;;5093304;28;20195;-69
2022/06/14 11:32:03;;;;;;;4.07;2.70;;;42.10;19.00;;;;;;5093521;28;20227;-70
2022/06/14 11:34:44;;;;;;;4.88;2.28;;;42.50;18.80;;;;;;5093070;28;20262;-70
2022/06/14 11:37:43;;;;;;;3.95;2.70;;;42.70;18.60;;;;;;5093522;28;20177;-70
2022/06/14 11:40:16;;;;;;;5.45;3.08;;;43.10;19.10;;;;;;5092651;28;20258;-70
2022/06/14 11:42:55;;;;;;;5.05;2.60;;;43.30;17.40;;;;;;5097405;28;20235;-70
2022/06/14 11:45:34;;;;;;;8.00;2.90;;;43.30;16.80;;;;;;5097455;28;20189;-70
2022/06/14 11:48:08;;;;;;;5.55;2.88;;;43.30;16.50;;;;;;5097480;28;20192;-71
2022/06/14 11:50:42;;;;;;;4.38;2.22;;;43.30;17.40;;;;;;5097385;28;20185;-71
2022/06/14 11:53:36;;;;;;;3.33;2.05;;;43.40;17.80;;;;;;5097356;28;20221;-71
2022/06/14 11:56:12;;;;;;;4.03;2.42;;;43.70;16.90;;;;;;5097304;28;20186;-71
2022/06/14 11:58:55;;;;;;;4.35;2.10;;;43.90;16.60;;;;;;5097203;28;20194;-72
2022/06/14 12:01:32;;;;;;;3.90;2.08;;;44.10;16.90;;;;;;5097189;28;20234;-72
2022/06/14 12:04:08;;;;;;;5.05;2.40;;;44.40;16.80;;;;;;5096835;28;20653;-71
2022/06/14 12:06:47;;;;;;;4.60;2.60;;;44.50;15.50;;;;;;5096850;28;20209;-71
2022/06/14 12:09:39;;;;;;;4.57;2.70;;;44.40;15.60;;;;;;5096866;28;20605;-71
2022/06/14 12:12:19;;;;;;;4.22;2.28;;;44.20;15.60;;;;;;5097023;28;20221;-71
2022/06/14 12:14:57;;;;;;;3.85;2.38;;;44.20;16.40;;;;;;5096800;28;20631;-72
2022/06/14 12:17:28;;;;;;;4.35;2.20;;;44.40;16.30;;;;;;5097066;28;20188;-71
2022/06/14 12:20:05;;;;;;;4.40;2.33;;;44.70;16.10;;;;;;5096865;28;20551;-71
2022/06/14 12:22:38;;;;;;;3.72;2.08;;;45.00;16.10;;;;;;5096849;28;20221;-72
2022/06/14 12:28:13;;;;;;;5.40;2.60;;;45.60;15.50;;;;;;5096938;28;20185;-71
2022/06/14 12:30:41;;;;;;;4.25;2.33;;;46.00;15.10;;;;;;5097020;28;20185;-70
2022/06/14 12:33:18;;;;;;;8.30;3.20;;;46.30;15.20;;;;;;5096985;28;20221;-70
2022/06/14 12:35:54;;;;;;;4.82;3.30;;;46.60;14.60;;;;;;5096880;28;20212;-70
2022/06/14 12:38:26;;;;;;;4.50;2.72;;;46.70;13.80;;;;;;5097973;28;20203;-70
2022/06/14 12:41:00;;;;;;;3.90;2.33;;;46.60;14.10;;;;;;5098811;28;20223;-70
2022/06/14 12:43:34;;;;;;;5.93;3.55;;;46.60;13.90;;;;;;5100146;28;20223;-70
2022/06/14 12:46:04;;;;;;;4.75;2.60;;;46.60;13.40;;;;;;5096400;28;20196;-72
2022/06/14 12:48:40;;;;;;;6.50;2.38;;;46.60;14.30;;;;;;5096330;28;20185;-73
2022/06/14 12:51:12;;;;;;;5.82;2.70;;;46.80;14.70;;;;;;5094772;28;20193;-72
2022/06/14 12:53:44;;;;;;;4.18;2.38;;;47.00;14.30;;;;;;5096100;28;20262;-74
2022/06/14 12:56:16;;;;;;;3.92;2.85;;;47.30;14.30;;;;;;5096170;28;20232;-73
2022/06/14 12:58:52;;;;;;;5.40;3.17;;;47.50;13.70;;;;;;5096093;28;20207;-73
2022/06/14 13:01:29;;;;;;;5.85;2.80;;;47.80;13.80;;;;;;5095507;28;20659;-72
2022/06/14 13:04:00;;;;;;;5.65;2.47;;;48.10;13.60;;;;;;5095607;28;20559;-72
2022/06/14 13:06:40;;;;;;;5.65;2.70;;;48.30;13.20;;;;;;5095626;28;20635;-73
2022/06/14 13:09:18;;;;;;;7.13;2.63;;;48.50;13.10;;;;;;5095867;28;20189;-73
2022/06/14 13:11:53;;;;;;;3.95;2.80;;;48.70;12.80;;;;;;5095835;28;20235;-72
2022/06/14 13:14:26;;;;;;;4.13;2.63;;;48.90;12.60;;;;;;5095802;28;20184;-73
2022/06/14 13:17:09;;;;;;;6.32;2.75;;;49.00;12.20;;;;;;5095638;28;20213;-72
2022/06/14 13:19:41;;;;;;;7.55;3.15;;;49.10;12.20;;;;;;5095670;28;20192;-71
2022/06/14 13:22:38;;;;;;;6.00;2.60;;;49.20;10.30;;;;;;5095379;28;20259;-73
2022/06/14 13:25:25;;;;;;;6.95;3.15;;;49.10;11.60;;;;;;5095621;28;20557;-73
2022/06/14 13:28:02;;;;;;;4.43;2.70;;;49.10;11.20;;;;;;5095626;28;20181;-73
2022/06/14 13:30:37;;;;;;;2.70;2.30;;;49.10;10.30;;;;;;5095433;28;20635;-73
2022/06/14 13:33:24;;;;;;;5.35;3.17;;;49.10;11.70;;;;;;5096289;28;20256;-72
2022/06/14 13:35:56;;;;;;;4.95;2.72;;;49.20;11.50;;;;;;5095053;28;20552;-72
2022/06/14 13:38:28;;;;;;;6.68;3.03;;;49.30;11.90;;;;;;5095060;28;20607;-72
2022/06/14 13:41:00;;;;;;;8.68;3.90;;;49.40;12.50;;;;;;5095247;28;20194;-72